Terminal Aerodrome Forecast
Issued by NWS

Home | Current Version | Previous Version | Text Only | Print | Product List | Glossary On
Versions: 1 2 3 4 5 6 7 8 9 10 11 12 13 14 15 16 17 18 19 20 21 22
000
FTPA31 PHFO 202300
TAFKOA
TAF
PHKO 202333Z 2100/2124 21008KT P6SM FEW035 SCT060
      TEMPO 2102/2104 SCT025 BKN060
     FM210600 12005KT P6SM FEW025 SCT050
     FM211000 08005KT P6SM FEW025
     FM212000 24008KT P6SM SCT025 SCT060=

USA.gov is the U.S. government's official web portal to all federal, state and local government web resources and services.